createdAt,value
2023-03-25T00:00:37.369Z,94.37
2023-03-25T00:01:37.339Z,94.48
2023-03-25T00:02:37.388Z,93.96
2023-03-25T00:03:37.331Z,93.30
2023-03-25T00:04:37.362Z,92.99
2023-03-25T00:05:37.340Z,93.10
2023-03-25T00:06:37.315Z,92.27
2023-03-25T00:07:37.936Z,92.79
2023-03-25T00:08:37.292Z,92.07
2023-03-25T00:09:37.278Z,92.69
2023-03-25T00:10:37.330Z,91.72
2023-03-25T00:11:37.263Z,91.45
2023-03-25T00:12:37.247Z,91.31
2023-03-25T00:13:37.244Z,91.10
2023-03-25T00:14:37.258Z,91.20
2023-03-25T00:15:37.245Z,91.31
2023-03-25T00:16:38.306Z,91.20
2023-03-25T00:17:37.314Z,91.00
2023-03-25T00:18:37.231Z,91.10
2023-03-25T00:19:37.199Z,91.35
2023-03-25T00:20:37.227Z,91.04
2023-03-25T00:21:37.181Z,91.00
2023-03-25T00:22:37.180Z,91.25
2023-03-25T00:23:37.166Z,91.41
2023-03-25T00:24:37.159Z,91.35
2023-03-25T00:25:37.197Z,91.45
2023-03-25T00:26:37.146Z,91.45
2023-03-25T00:27:37.139Z,91.04
2023-03-25T00:28:37.129Z,91.35
2023-03-25T00:29:37.135Z,91.76
2023-03-25T00:30:37.230Z,91.91
2023-03-25T00:31:37.106Z,91.66
2023-03-25T00:32:37.121Z,91.49
2023-03-25T00:33:37.099Z,91.45
2023-03-25T00:34:37.078Z,91.55
2023-03-25T00:35:37.118Z,91.70
2023-03-25T00:36:37.058Z,91.60
2023-03-25T00:37:37.061Z,91.29
2023-03-25T00:38:37.047Z,91.29
2023-03-25T00:39:37.069Z,91.19
2023-03-25T00:40:37.045Z,91.39
2023-03-25T00:41:37.144Z,91.39
2023-03-25T00:42:37.028Z,91.19
2023-03-25T00:43:37.034Z,91.35
2023-03-25T00:44:36.995Z,90.73
2023-03-25T00:45:36.986Z,91.35
2023-03-25T00:46:37.075Z,91.19
2023-03-25T00:47:36.998Z,90.98
2023-03-25T00:48:36.966Z,90.83
2023-03-25T00:49:36.979Z,91.60
2023-03-25T00:50:36.999Z,91.29
2023-03-25T00:51:52.413Z,91.19
2023-03-25T00:52:37.941Z,91.19
2023-03-25T00:53:36.949Z,91.19
2023-03-25T00:54:36.918Z,90.42
2023-03-25T00:55:36.912Z,90.32
2023-03-25T00:56:36.959Z,90.12
2023-03-25T00:57:36.901Z,90.53
2023-03-25T00:58:36.888Z,91.14
2023-03-25T00:59:36.890Z,91.55
2023-03-25T01:00:36.873Z,91.04
2023-03-25T01:01:36.904Z,90.94
2023-03-25T01:02:36.930Z,90.53
2023-03-25T01:03:36.924Z,90.32
2023-03-25T01:04:36.844Z,90.63
2023-03-25T01:05:36.831Z,90.63
2023-03-25T01:06:36.868Z,90.12
2023-03-25T01:07:36.851Z,90.18
2023-03-25T01:08:36.806Z,90.08
2023-03-25T01:09:36.804Z,89.97
2023-03-25T01:10:36.798Z,89.76
2023-03-25T01:11:36.817Z,89.97
2023-03-25T01:12:36.814Z,89.91
2023-03-25T01:13:36.779Z,90.08
2023-03-25T01:14:36.767Z,89.91
2023-03-25T01:15:36.811Z,89.87
2023-03-25T01:16:36.777Z,90.01
2023-03-25T01:17:36.822Z,90.01
2023-03-25T01:18:36.745Z,90.01
2023-03-25T01:19:36.735Z,89.97
2023-03-25T01:20:36.714Z,90.28
2023-03-25T01:21:36.773Z,89.70
2023-03-25T01:22:36.717Z,90.08
2023-03-25T01:23:36.709Z,89.70
2023-03-25T01:24:36.695Z,90.12
2023-03-25T01:25:36.701Z,90.01
2023-03-25T01:26:36.700Z,90.22
2023-03-25T01:27:36.682Z,90.01
2023-03-25T01:28:36.674Z,90.08
2023-03-25T01:29:36.680Z,90.08
2023-03-25T01:30:36.651Z,90.01
2023-03-25T01:31:36.706Z,89.91
2023-03-25T01:32:36.654Z,89.70
2023-03-25T01:33:36.640Z,89.66
2023-03-25T01:34:36.708Z,90.01
2023-03-25T01:35:36.626Z,89.91
2023-03-25T01:36:36.649Z,89.60
2023-03-25T01:37:36.739Z,89.81
2023-03-25T01:38:36.591Z,89.76
2023-03-25T01:39:36.591Z,89.70
2023-03-25T01:40:36.583Z,89.40
2023-03-25T01:41:46.820Z,89.25
2023-03-25T01:42:38.571Z,89.15
2023-03-25T01:43:36.553Z,89.04
2023-03-25T01:44:36.551Z,89.15
2023-03-25T01:45:36.585Z,88.68
2023-03-25T01:46:36.578Z,88.33
2023-03-25T01:47:36.539Z,88.64
2023-03-25T01:48:36.580Z,88.27
2023-03-25T01:49:36.508Z,88.47
2023-03-25T01:50:36.499Z,88.74
2023-03-25T01:51:36.543Z,88.89
2023-03-25T01:52:36.488Z,88.47
2023-03-25T01:53:36.487Z,88.33
2023-03-25T01:54:36.474Z,88.12
2023-03-25T01:55:36.466Z,88.74
2023-03-25T01:56:36.572Z,88.47
2023-03-25T01:57:36.462Z,88.33
2023-03-25T01:58:36.442Z,87.85
2023-03-25T01:59:36.452Z,88.17
2023-03-25T02:00:36.455Z,88.17
2023-03-25T02:01:36.446Z,87.61
2023-03-25T02:02:36.494Z,88.23
2023-03-25T02:03:36.445Z,88.27
2023-03-25T02:04:36.398Z,87.75
2023-03-25T02:05:36.390Z,87.51
2023-03-25T02:06:36.417Z,87.40
2023-03-25T02:07:36.385Z,86.79
2023-03-25T02:08:36.374Z,86.52
2023-03-25T02:09:36.370Z,86.52
2023-03-25T02:10:36.356Z,86.79
2023-03-25T02:11:36.482Z,86.62
2023-03-25T02:12:36.348Z,86.99
2023-03-25T02:13:36.331Z,87.04
2023-03-25T02:14:36.327Z,86.62
2023-03-25T02:15:36.322Z,86.48
2023-03-25T02:16:36.347Z,86.48
2023-03-25T02:17:36.377Z,86.79
2023-03-25T02:18:36.313Z,86.72
2023-03-25T02:19:36.309Z,86.68
2023-03-25T02:20:36.295Z,86.79
2023-03-25T02:21:36.276Z,86.62
2023-03-25T02:22:36.297Z,85.55
2023-03-25T02:23:36.265Z,85.35
2023-03-25T02:24:36.253Z,85.60
2023-03-25T02:25:36.250Z,85.70
2023-03-25T02:26:36.238Z,85.49
2023-03-25T02:27:36.266Z,85.46
2023-03-25T02:28:36.226Z,85.70
2023-03-25T02:29:36.208Z,85.60
2023-03-25T02:30:36.211Z,85.90
2023-03-25T02:31:36.221Z,86.21
2023-03-25T02:32:36.240Z,85.49
2023-03-25T02:33:36.190Z,85.35
2023-03-25T02:34:36.179Z,85.39
2023-03-25T02:35:36.214Z,85.70
2023-03-25T02:36:36.168Z,85.80
2023-03-25T02:37:36.189Z,85.70
2023-03-25T02:38:36.158Z,85.80
2023-03-25T02:39:36.134Z,85.70
2023-03-25T02:40:37.137Z,85.39
2023-03-25T02:41:36.846Z,85.84
2023-03-25T02:42:36.136Z,85.90
2023-03-25T02:43:36.117Z,85.90
2023-03-25T02:44:36.119Z,85.74
2023-03-25T02:45:36.099Z,85.74
2023-03-25T02:46:36.110Z,85.49
2023-03-25T02:47:36.138Z,85.43
2023-03-25T02:48:36.085Z,85.18
2023-03-25T02:49:36.078Z,85.18
2023-03-25T02:50:36.061Z,84.88
2023-03-25T02:51:36.046Z,85.12
2023-03-25T02:52:36.066Z,85.70
2023-03-25T02:53:36.035Z,85.02
2023-03-25T02:54:36.013Z,84.40
2023-03-25T02:55:37.054Z,84.71
2023-03-25T02:56:36.019Z,85.02
2023-03-25T02:57:36.026Z,85.18
2023-03-25T02:58:36.003Z,85.28
2023-03-25T02:59:35.983Z,85.22
2023-03-25T03:00:36.001Z,85.22
2023-03-25T03:01:36.057Z,85.12
2023-03-25T03:02:36.112Z,85.33
2023-03-25T03:03:35.988Z,85.53
2023-03-25T03:04:35.957Z,85.43
2023-03-25T03:05:36.018Z,85.53
2023-03-25T03:06:35.947Z,85.74
2023-03-25T03:07:35.936Z,85.94
2023-03-25T03:08:35.946Z,85.43
2023-03-25T03:09:35.921Z,85.43
2023-03-25T03:10:35.906Z,85.63
2023-03-25T03:11:35.913Z,85.53
2023-03-25T03:12:35.905Z,85.53
2023-03-25T03:13:35.911Z,85.74
2023-03-25T03:14:35.884Z,85.84
2023-03-25T03:15:35.861Z,86.05
2023-03-25T03:16:35.894Z,86.77
2023-03-25T03:17:35.935Z,85.98
2023-03-25T03:18:35.889Z,86.80
2023-03-25T03:19:35.847Z,87.12
2023-03-25T03:20:35.826Z,86.80
2023-03-25T03:21:35.844Z,86.70
2023-03-25T03:22:35.827Z,86.87
2023-03-25T03:23:35.831Z,86.80
2023-03-25T03:24:35.806Z,86.80
2023-03-25T03:25:35.800Z,86.60
2023-03-25T03:26:35.830Z,86.80
2023-03-25T03:27:35.775Z,86.70
2023-03-25T03:28:35.840Z,87.22
2023-03-25T03:29:36.759Z,87.32
2023-03-25T03:30:35.752Z,87.32
2023-03-25T03:31:48.249Z,87.84
2023-03-25T03:32:36.769Z,87.63
2023-03-25T03:33:35.758Z,87.67
2023-03-25T03:34:35.736Z,87.77
2023-03-25T03:35:35.764Z,87.67
2023-03-25T03:36:35.709Z,87.73
2023-03-25T03:37:35.704Z,87.73
2023-03-25T03:38:35.731Z,87.52
2023-03-25T03:39:35.688Z,87.63
2023-03-25T03:40:35.684Z,86.80
2023-03-25T03:41:35.684Z,86.70
2023-03-25T03:42:35.659Z,86.60
2023-03-25T03:43:35.695Z,86.70
2023-03-25T03:44:35.657Z,86.80
2023-03-25T03:45:35.629Z,86.60
2023-03-25T03:46:36.674Z,86.60
2023-03-25T03:47:35.679Z,86.60
2023-03-25T03:48:35.690Z,86.80
2023-03-25T03:49:35.618Z,86.70
2023-03-25T03:50:35.613Z,86.70
2023-03-25T03:51:35.612Z,86.08
2023-03-25T03:52:35.597Z,86.80
2023-03-25T03:53:35.614Z,86.91
2023-03-25T03:54:35.580Z,86.70
2023-03-25T03:55:35.586Z,87.01
2023-03-25T03:56:35.571Z,86.91
2023-03-25T03:57:35.568Z,86.91
2023-03-25T03:58:35.552Z,86.70
2023-03-25T03:59:35.562Z,86.70
2023-03-25T04:00:35.530Z,86.80
2023-03-25T04:01:35.548Z,86.80
2023-03-25T04:02:35.622Z,85.88
2023-03-25T04:03:35.575Z,85.78
2023-03-25T04:04:35.526Z,86.08
2023-03-25T04:05:35.499Z,85.57
2023-03-25T04:06:35.579Z,85.57
2023-03-25T04:07:35.486Z,85.68
2023-03-25T04:08:35.476Z,85.74
2023-03-25T04:09:35.491Z,86.19
2023-03-25T04:10:35.459Z,86.87
2023-03-25T04:11:35.464Z,86.77
2023-03-25T04:12:35.450Z,86.80
2023-03-25T04:13:35.440Z,86.50
2023-03-25T04:14:35.475Z,86.60
2023-03-25T04:15:35.408Z,86.60
2023-03-25T04:16:36.432Z,86.80
2023-03-25T04:17:35.449Z,86.80
2023-03-25T04:18:35.401Z,86.91
2023-03-25T04:19:35.426Z,87.32
2023-03-25T04:20:35.385Z,87.32
2023-03-25T04:21:35.376Z,87.01
2023-03-25T04:22:35.371Z,87.32
2023-03-25T04:23:35.369Z,87.52
2023-03-25T04:24:35.384Z,87.28
2023-03-25T04:25:35.344Z,87.79
2023-03-25T04:26:35.344Z,87.32
2023-03-25T04:27:35.332Z,87.84
2023-03-25T04:28:35.328Z,88.14
2023-03-25T04:29:35.420Z,88.04
2023-03-25T04:30:35.304Z,88.24
2023-03-25T04:31:35.312Z,87.94
2023-03-25T04:32:35.397Z,88.14
2023-03-25T04:33:35.289Z,88.35
2023-03-25T04:34:35.306Z,88.24
2023-03-25T04:35:35.303Z,88.90
2023-03-25T04:36:35.264Z,89.11
2023-03-25T04:37:35.263Z,89.11
2023-03-25T04:38:35.247Z,89.42
2023-03-25T04:39:35.266Z,89.22
2023-03-25T04:40:35.261Z,89.42
2023-03-25T04:41:35.269Z,89.62
2023-03-25T04:42:35.215Z,89.31
2023-03-25T04:43:35.210Z,89.52
2023-03-25T04:44:35.237Z,89.94
2023-03-25T04:45:35.281Z,90.03
2023-03-25T04:46:35.189Z,90.24
2023-03-25T04:47:35.269Z,90.66
2023-03-25T04:48:35.180Z,90.45
2023-03-25T04:49:35.176Z,90.55
2023-03-25T04:50:35.183Z,91.06
2023-03-25T04:51:35.159Z,91.58
2023-03-25T04:52:35.150Z,91.38
2023-03-25T04:53:35.136Z,91.78
2023-03-25T04:54:35.132Z,91.58
2023-03-25T04:55:35.143Z,91.68
2023-03-25T04:56:35.154Z,92.71
2023-03-25T04:57:35.097Z,92.34
2023-03-25T04:58:35.278Z,92.44
2023-03-25T04:59:35.098Z,92.44
2023-03-25T05:00:35.110Z,92.44
2023-03-25T05:01:35.112Z,92.96
2023-03-25T05:02:35.116Z,92.86
2023-03-25T05:03:35.057Z,91.93
2023-03-25T05:04:35.077Z,92.44
2023-03-25T05:05:35.080Z,93.06
2023-03-25T05:06:35.031Z,92.76
2023-03-25T05:07:35.027Z,93.06
2023-03-25T05:08:35.027Z,93.06
2023-03-25T05:09:35.082Z,93.06
2023-03-25T05:10:35.091Z,92.96
2023-03-25T05:11:34.997Z,93.27
2023-03-25T05:12:34.997Z,93.27
2023-03-25T05:13:34.991Z,93.58
2023-03-25T05:14:34.972Z,93.58
2023-03-25T05:15:35.030Z,93.79
2023-03-25T05:16:35.027Z,93.79
2023-03-25T05:17:34.981Z,93.99
2023-03-25T05:18:34.942Z,94.20
2023-03-25T05:19:35.249Z,94.51
2023-03-25T05:20:34.986Z,94.30
2023-03-25T05:21:34.921Z,93.48
2023-03-25T05:22:34.908Z,93.58
2023-03-25T05:23:34.919Z,93.37
2023-03-25T05:24:34.907Z,93.58
2023-03-25T05:25:34.896Z,93.68
2023-03-25T05:26:34.907Z,93.11
2023-03-25T05:27:34.875Z,92.55
2023-03-25T05:28:34.857Z,92.80
2023-03-25T05:29:35.855Z,93.16
2023-03-25T05:30:34.847Z,93.01
2023-03-25T05:31:34.885Z,93.52
2023-03-25T05:32:34.880Z,93.48
2023-03-25T05:33:34.825Z,93.16
2023-03-25T05:34:34.820Z,93.41
2023-03-25T05:35:34.820Z,93.37
2023-03-25T05:36:34.830Z,93.31
2023-03-25T05:37:34.802Z,93.27
2023-03-25T05:38:34.806Z,93.41
2023-03-25T05:39:34.782Z,93.52
2023-03-25T05:40:34.785Z,93.41
2023-03-25T05:41:34.788Z,93.41
2023-03-25T05:42:34.746Z,94.40
2023-03-25T05:43:34.751Z,94.30
2023-03-25T05:44:34.773Z,94.34
2023-03-25T05:45:34.757Z,94.30
2023-03-25T05:46:34.844Z,94.24
2023-03-25T05:47:34.791Z,94.09
2023-03-25T05:48:34.708Z,94.30
2023-03-25T05:49:34.707Z,93.48
2023-03-25T05:50:34.748Z,93.37
2023-03-25T05:51:34.711Z,93.27
2023-03-25T05:52:34.693Z,93.48
2023-03-25T05:53:34.676Z,93.48
2023-03-25T05:54:34.669Z,93.68
2023-03-25T05:55:34.672Z,93.37
2023-03-25T05:56:34.700Z,93.58
2023-03-25T05:57:34.653Z,93.37
2023-03-25T05:58:34.636Z,93.27
2023-03-25T05:59:34.630Z,93.06
2023-03-25T06:00:37.064Z,93.16
2023-03-25T06:01:34.703Z,93.27
2023-03-25T06:02:34.733Z,93.48
2023-03-25T06:03:34.676Z,93.37
2023-03-25T06:04:34.593Z,92.96
2023-03-25T06:05:34.630Z,92.55
2023-03-25T06:06:34.683Z,92.71
2023-03-25T06:07:34.598Z,92.76
2023-03-25T06:08:34.579Z,92.40
2023-03-25T06:09:34.551Z,92.71
2023-03-25T06:10:34.553Z,92.92
2023-03-25T06:11:34.540Z,91.68
2023-03-25T06:12:34.570Z,92.40
2023-03-25T06:13:34.530Z,92.30
2023-03-25T06:14:34.581Z,92.10
2023-03-25T06:15:34.579Z,91.74
2023-03-25T06:16:34.498Z,91.47
2023-03-25T06:17:34.584Z,91.17
2023-03-25T06:18:34.592Z,91.27
2023-03-25T06:19:34.476Z,91.23
2023-03-25T06:20:34.545Z,91.13
2023-03-25T06:21:34.488Z,91.19
2023-03-25T06:22:34.478Z,91.60
2023-03-25T06:23:34.444Z,89.95
2023-03-25T06:24:34.442Z,90.06
2023-03-25T06:25:34.477Z,89.75
2023-03-25T06:26:34.430Z,89.54
2023-03-25T06:27:34.438Z,89.54
2023-03-25T06:28:34.413Z,89.75
2023-03-25T06:29:34.403Z,89.75
2023-03-25T06:30:34.405Z,89.60
2023-03-25T06:31:34.670Z,88.82
2023-03-25T06:32:34.433Z,88.82
2023-03-25T06:33:42.971Z,88.72
2023-03-25T06:34:35.428Z,88.62
2023-03-25T06:35:34.385Z,88.89
2023-03-25T06:36:34.403Z,88.37
2023-03-25T06:37:34.370Z,87.49
2023-03-25T06:38:34.334Z,86.83
2023-03-25T06:39:34.322Z,86.52
2023-03-25T06:40:34.317Z,86.83
2023-03-25T06:41:34.301Z,86.72
2023-03-25T06:42:34.360Z,86.62
2023-03-25T06:43:34.295Z,86.52
2023-03-25T06:44:34.322Z,86.58
2023-03-25T06:45:34.276Z,86.68
2023-03-25T06:46:34.411Z,86.79
2023-03-25T06:47:34.334Z,85.46
2023-03-25T06:48:34.314Z,85.76
2023-03-25T06:49:34.371Z,84.12
2023-03-25T06:50:34.290Z,84.63
2023-03-25T06:51:34.237Z,85.04
2023-03-25T06:52:34.241Z,83.81
2023-03-25T06:53:34.671Z,84.01
2023-03-25T06:54:34.206Z,84.42
2023-03-25T06:55:34.200Z,84.28
2023-03-25T06:56:35.025Z,84.39
2023-03-25T06:57:34.263Z,83.98
2023-03-25T06:58:34.201Z,83.87
2023-03-25T06:59:34.223Z,83.56
2023-03-25T07:00:34.176Z,84.08
2023-03-25T07:01:34.178Z,83.73
2023-03-25T07:02:34.237Z,83.63
2023-03-25T07:03:34.167Z,83.53
2023-03-25T07:04:34.123Z,83.94
2023-03-25T07:05:34.164Z,83.53
2023-03-25T07:06:34.136Z,83.22
2023-03-25T07:07:34.134Z,82.50
2023-03-25T07:08:34.194Z,82.29
2023-03-25T07:09:34.090Z,82.50
2023-03-25T07:10:34.079Z,82.50
2023-03-25T07:11:34.246Z,82.40
2023-03-25T07:12:35.078Z,82.09
2023-03-25T07:13:34.121Z,82.15
2023-03-25T07:14:34.091Z,82.09
2023-03-25T07:15:34.058Z,81.57
2023-03-25T07:16:34.139Z,81.37
2023-03-25T07:17:34.074Z,82.29
2023-03-25T07:18:34.059Z,82.56
2023-03-25T07:19:34.013Z,82.46
2023-03-25T07:20:34.025Z,82.56
2023-03-25T07:21:34.122Z,82.70
2023-03-25T07:22:34.004Z,82.56
2023-03-25T07:23:34.021Z,82.70
2023-03-25T07:24:33.979Z,83.01
2023-03-25T07:25:34.627Z,83.07
2023-03-25T07:26:33.980Z,82.50
2023-03-25T07:27:33.968Z,82.29
2023-03-25T07:28:33.986Z,82.09
2023-03-25T07:29:33.942Z,81.78
2023-03-25T07:30:33.952Z,81.78
2023-03-25T07:31:33.960Z,81.41
2023-03-25T07:32:33.946Z,81.78
2023-03-25T07:33:33.943Z,81.57
2023-03-25T07:34:33.914Z,80.96
2023-03-25T07:35:33.908Z,80.86
2023-03-25T07:36:33.912Z,81.06
2023-03-25T07:37:33.889Z,81.13
2023-03-25T07:38:33.872Z,81.23
2023-03-25T07:39:34.469Z,81.54
2023-03-25T07:40:33.857Z,81.34
2023-03-25T07:41:33.847Z,82.05
2023-03-25T07:42:33.846Z,82.09
2023-03-25T07:43:33.833Z,82.36
2023-03-25T07:44:33.851Z,82.67
2023-03-25T07:45:43.340Z,82.56
2023-03-25T07:46:34.852Z,82.15
2023-03-25T07:47:34.607Z,81.95
2023-03-25T07:48:33.823Z,82.15
2023-03-25T07:49:33.885Z,82.67
2023-03-25T07:50:33.781Z,82.60
2023-03-25T07:51:33.780Z,82.29
2023-03-25T07:52:33.802Z,82.29
2023-03-25T07:53:33.775Z,82.09
2023-03-25T07:54:33.790Z,82.60
2023-03-25T07:55:33.739Z,82.60
2023-03-25T07:56:33.805Z,82.67
2023-03-25T07:57:33.729Z,82.05
2023-03-25T07:58:33.723Z,82.19
2023-03-25T07:59:33.748Z,82.09
2023-03-25T08:00:33.717Z,82.05
2023-03-25T08:01:33.707Z,81.54
2023-03-25T08:02:33.754Z,81.23
2023-03-25T08:03:33.751Z,81.34
2023-03-25T08:04:33.707Z,80.92
2023-03-25T08:05:33.695Z,81.23
2023-03-25T08:06:33.661Z,81.43
2023-03-25T08:07:33.712Z,81.95
2023-03-25T08:08:33.696Z,81.40
2023-03-25T08:09:34.160Z,80.82
2023-03-25T08:10:33.633Z,80.10
2023-03-25T08:11:34.420Z,80.31
2023-03-25T08:12:34.634Z,80.31
2023-03-25T08:13:34.429Z,80.51
2023-03-25T08:14:33.723Z,80.72
2023-03-25T08:15:33.591Z,80.62
2023-03-25T08:16:33.594Z,80.51
2023-03-25T08:17:33.594Z,79.86
2023-03-25T08:18:33.570Z,80.10
2023-03-25T08:19:33.580Z,80.17
2023-03-25T08:20:33.547Z,79.75
2023-03-25T08:21:34.133Z,79.45
2023-03-25T08:22:33.552Z,79.90
2023-03-25T08:23:33.672Z,80.78
2023-03-25T08:24:33.573Z,79.86
2023-03-25T08:25:34.429Z,79.75
2023-03-25T08:26:33.527Z,80.07
2023-03-25T08:27:37.136Z,79.45
2023-03-25T08:28:33.537Z,78.94
2023-03-25T08:29:33.504Z,78.74
2023-03-25T08:30:33.472Z,78.32
2023-03-25T08:31:33.504Z,78.22
2023-03-25T08:32:33.491Z,78.32
2023-03-25T08:33:33.451Z,78.42
2023-03-25T08:34:33.464Z,78.63
2023-03-25T08:35:33.511Z,78.70
2023-03-25T08:36:34.084Z,78.02
2023-03-25T08:37:33.477Z,76.85
2023-03-25T08:38:34.822Z,77.20
2023-03-25T08:39:34.397Z,78.08
2023-03-25T08:40:33.522Z,78.42
2023-03-25T08:41:33.391Z,78.59
2023-03-25T08:42:33.388Z,78.59
2023-03-25T08:43:33.372Z,78.49
2023-03-25T08:44:33.362Z,78.49
2023-03-25T08:45:33.470Z,78.59
2023-03-25T08:46:33.402Z,78.49
2023-03-25T08:47:33.374Z,78.70
2023-03-25T08:48:33.332Z,78.35
2023-03-25T08:49:33.332Z,77.36
2023-03-25T08:50:33.399Z,76.65
2023-03-25T08:51:33.318Z,77.47
2023-03-25T08:52:34.309Z,78.32
2023-03-25T08:53:33.323Z,77.26
2023-03-25T08:54:33.288Z,77.57
2023-03-25T08:55:33.309Z,78.28
2023-03-25T08:56:33.304Z,78.08
2023-03-25T08:57:33.275Z,77.87
2023-03-25T08:58:33.261Z,77.36
2023-03-25T08:59:33.268Z,78.28
2023-03-25T09:00:33.992Z,77.36
2023-03-25T09:01:33.337Z,76.95
2023-03-25T09:02:33.286Z,76.99
2023-03-25T09:03:33.231Z,76.85
2023-03-25T09:04:33.218Z,78.59
2023-03-25T09:05:33.281Z,78.59
2023-03-25T09:06:48.156Z,78.70
2023-03-25T09:07:34.188Z,79.14
2023-03-25T09:08:33.188Z,79.14
2023-03-25T09:09:33.179Z,78.70
2023-03-25T09:10:33.192Z,78.63
2023-03-25T09:11:36.972Z,79.14
2023-03-25T09:12:34.214Z,79.35
2023-03-25T09:13:33.155Z,79.04
2023-03-25T09:14:33.148Z,78.83
2023-03-25T09:15:33.181Z,79.75
2023-03-25T09:16:33.125Z,79.96
2023-03-25T09:17:33.167Z,79.96
2023-03-25T09:18:33.124Z,80.17
2023-03-25T09:19:33.095Z,80.07
2023-03-25T09:20:33.125Z,80.21
2023-03-25T09:21:33.085Z,80.51
2023-03-25T09:22:33.119Z,80.88
2023-03-25T09:23:33.071Z,81.29
2023-03-25T09:24:33.070Z,81.60
2023-03-25T09:25:33.059Z,81.60
2023-03-25T09:26:33.042Z,82.18
2023-03-25T09:27:33.151Z,81.26
2023-03-25T09:28:33.938Z,81.15
2023-03-25T09:29:33.016Z,81.05
2023-03-25T09:30:33.013Z,80.74
2023-03-25T09:31:33.053Z,80.95
2023-03-25T09:32:33.041Z,81.05
2023-03-25T09:33:32.989Z,81.57
2023-03-25T09:34:33.603Z,82.18
2023-03-25T09:35:33.037Z,82.42
2023-03-25T09:36:32.967Z,83.04
2023-03-25T09:37:32.983Z,82.67
2023-03-25T09:38:32.944Z,82.97
2023-03-25T09:39:32.939Z,83.90
2023-03-25T09:40:32.929Z,82.83
2023-03-25T09:41:32.928Z,83.45
2023-03-25T09:42:32.945Z,83.65
2023-03-25T09:43:32.906Z,83.41
2023-03-25T09:44:32.916Z,83.37
2023-03-25T09:45:32.952Z,83.47
2023-03-25T09:46:32.911Z,83.33
2023-03-25T09:47:32.910Z,81.29
2023-03-25T09:48:32.866Z,81.49
2023-03-25T09:49:32.863Z,81.35
2023-03-25T09:50:32.854Z,81.15
2023-03-25T09:51:32.868Z,80.69
2023-03-25T09:52:32.865Z,80.19
2023-03-25T09:53:32.830Z,80.12
2023-03-25T09:54:32.828Z,79.78
2023-03-25T09:55:32.825Z,79.10
2023-03-25T09:56:32.844Z,78.59
2023-03-25T09:57:32.822Z,79.20
2023-03-25T09:58:32.786Z,80.33
2023-03-25T09:59:32.788Z,80.22
2023-03-25T10:00:32.797Z,80.22
2023-03-25T10:01:32.775Z,80.12
2023-03-25T10:02:32.837Z,79.82
2023-03-25T10:03:32.848Z,79.13
2023-03-25T10:04:32.742Z,79.34
2023-03-25T10:05:32.732Z,78.72
2023-03-25T10:06:32.736Z,79.34
2023-03-25T10:07:32.818Z,79.79
2023-03-25T10:08:32.752Z,80.81
2023-03-25T10:09:32.727Z,81.05
2023-03-25T10:10:32.704Z,81.32
2023-03-25T10:11:32.716Z,82.28
2023-03-25T10:12:32.701Z,82.69
2023-03-25T10:13:32.710Z,82.73
2023-03-25T10:14:32.671Z,83.34
2023-03-25T10:15:32.677Z,83.86
2023-03-25T10:16:32.660Z,83.65
2023-03-25T10:17:32.683Z,82.87
2023-03-25T10:18:32.688Z,82.36
2023-03-25T10:19:32.649Z,82.46
2023-03-25T10:20:32.626Z,83.90
2023-03-25T10:21:32.684Z,84.34
2023-03-25T10:22:32.619Z,83.63
2023-03-25T10:23:32.630Z,84.32
2023-03-25T10:24:32.635Z,83.23
2023-03-25T10:25:32.601Z,84.71
2023-03-25T10:26:32.593Z,86.70
2023-03-25T10:27:32.587Z,86.70
2023-03-25T10:28:33.632Z,85.06
2023-03-25T10:29:32.557Z,85.98
2023-03-25T10:30:32.557Z,86.70
2023-03-25T10:31:32.571Z,85.92
2023-03-25T10:32:32.620Z,85.41
2023-03-25T10:33:32.562Z,85.41
2023-03-25T10:34:33.849Z,85.10
2023-03-25T10:35:32.554Z,86.13
2023-03-25T10:36:32.517Z,86.68
2023-03-25T10:37:32.518Z,86.74
2023-03-25T10:38:32.530Z,86.79
2023-03-25T10:39:32.497Z,87.60
2023-03-25T10:40:32.489Z,86.79
2023-03-25T10:41:32.548Z,86.99
2023-03-25T10:42:32.470Z,87.54
2023-03-25T10:43:32.488Z,87.54
2023-03-25T10:44:32.485Z,87.24
2023-03-25T10:45:32.495Z,87.19
2023-03-25T10:46:32.441Z,86.82
2023-03-25T10:47:32.490Z,86.61
2023-03-25T10:48:32.486Z,85.49
2023-03-25T10:49:32.466Z,86.82
2023-03-25T10:50:32.407Z,86.00
2023-03-25T10:51:32.420Z,86.82
2023-03-25T10:52:32.391Z,85.49
2023-03-25T10:53:32.429Z,84.49
2023-03-25T10:54:32.377Z,85.07
2023-03-25T10:55:32.372Z,84.97
2023-03-25T10:56:32.381Z,84.14
2023-03-25T10:57:32.368Z,84.35
2023-03-25T10:58:32.380Z,84.62
2023-03-25T10:59:32.336Z,84.52
2023-03-25T11:00:32.342Z,84.14
2023-03-25T11:01:32.357Z,84.62
2023-03-25T11:02:32.449Z,84.89
2023-03-25T11:03:32.357Z,84.17
2023-03-25T11:04:32.300Z,83.62
2023-03-25T11:05:32.303Z,83.83
2023-03-25T11:06:32.291Z,83.99
2023-03-25T11:07:32.322Z,83.23
2023-03-25T11:08:32.295Z,84.05
2023-03-25T11:09:32.260Z,83.54
2023-03-25T11:10:32.261Z,83.09
2023-03-25T11:11:32.243Z,83.03
2023-03-25T11:12:42.592Z,82.71
2023-03-25T11:13:34.253Z,82.92
2023-03-25T11:14:32.226Z,83.64
2023-03-25T11:15:32.282Z,82.92
2023-03-25T11:16:32.221Z,83.33
2023-03-25T11:17:32.256Z,83.75
2023-03-25T11:18:32.350Z,83.75
2023-03-25T11:19:32.317Z,83.75
2023-03-25T11:20:32.199Z,83.85
2023-03-25T11:21:32.200Z,84.26
2023-03-25T11:22:32.327Z,83.95
2023-03-25T11:23:32.216Z,83.81
2023-03-25T11:24:32.149Z,83.61
2023-03-25T11:25:32.145Z,83.29
2023-03-25T11:26:32.149Z,83.50
2023-03-25T11:27:32.162Z,82.99
2023-03-25T11:28:32.180Z,81.96
2023-03-25T11:29:32.104Z,82.84
2023-03-25T11:30:32.101Z,83.56
2023-03-25T11:31:32.099Z,83.36
2023-03-25T11:32:32.143Z,81.68
2023-03-25T11:33:32.103Z,82.60
2023-03-25T11:34:32.172Z,81.62
2023-03-25T11:35:32.085Z,82.70
2023-03-25T11:36:32.062Z,81.37
2023-03-25T11:37:32.053Z,82.05
2023-03-25T11:38:32.058Z,82.46
2023-03-25T11:39:32.057Z,81.34
2023-03-25T11:40:32.051Z,80.82
2023-03-25T11:41:32.020Z,81.06
2023-03-25T11:42:32.021Z,81.23
2023-03-25T11:43:32.006Z,82.19
2023-03-25T11:44:32.327Z,81.37
2023-03-25T11:45:33.838Z,81.43
2023-03-25T11:46:31.990Z,81.85
2023-03-25T11:47:32.021Z,80.78
2023-03-25T11:48:31.998Z,80.47
2023-03-25T11:49:32.012Z,80.07
2023-03-25T11:50:31.973Z,80.74
2023-03-25T11:51:31.941Z,80.33
2023-03-25T11:52:32.136Z,79.96
2023-03-25T11:53:31.922Z,79.75
2023-03-25T11:54:31.943Z,80.68
2023-03-25T11:55:31.910Z,80.27
2023-03-25T11:56:31.922Z,79.45
2023-03-25T11:57:32.870Z,80.17
2023-03-25T11:58:32.887Z,80.78
2023-03-25T11:59:31.945Z,80.99
2023-03-25T12:00:31.926Z,81.40
2023-03-25T12:01:31.855Z,80.72
2023-03-25T12:02:31.899Z,81.85
2023-03-25T12:03:31.926Z,82.36
2023-03-25T12:04:31.866Z,82.29
2023-03-25T12:05:31.835Z,83.01
2023-03-25T12:06:31.877Z,83.49
2023-03-25T12:07:31.823Z,83.45
2023-03-25T12:08:31.815Z,83.25
2023-03-25T12:09:31.829Z,82.69
2023-03-25T12:10:31.806Z,81.22
2023-03-25T12:11:31.793Z,81.84
2023-03-25T12:12:31.807Z,81.12
2023-03-25T12:13:31.790Z,81.94
2023-03-25T12:14:31.798Z,82.10
2023-03-25T12:15:31.768Z,81.18
2023-03-25T12:16:31.800Z,80.77
2023-03-25T12:17:31.831Z,80.67
2023-03-25T12:18:31.748Z,81.18
2023-03-25T12:19:31.763Z,81.79
2023-03-25T12:20:31.731Z,80.98
2023-03-25T12:21:31.717Z,80.67
2023-03-25T12:22:31.745Z,81.18
2023-03-25T12:23:31.697Z,81.08
2023-03-25T12:24:31.775Z,81.59
2023-03-25T12:25:31.683Z,80.81
2023-03-25T12:26:31.805Z,81.43
2023-03-25T12:27:31.704Z,81.59
2023-03-25T12:28:31.657Z,81.59
2023-03-25T12:29:31.677Z,81.01
2023-03-25T12:30:31.662Z,80.88
2023-03-25T12:31:31.670Z,81.38
2023-03-25T12:32:31.660Z,81.59
2023-03-25T12:33:31.638Z,80.63
2023-03-25T12:34:31.636Z,80.98
2023-03-25T12:35:31.635Z,80.46
2023-03-25T12:36:31.607Z,80.36
2023-03-25T12:37:31.618Z,80.53
2023-03-25T12:38:31.582Z,80.63
2023-03-25T12:39:42.282Z,79.91
2023-03-25T12:40:33.589Z,79.71
2023-03-25T12:41:31.602Z,79.61
2023-03-25T12:42:31.559Z,79.91
2023-03-25T12:43:31.547Z,80.02
2023-03-25T12:44:31.660Z,79.57
2023-03-25T12:45:31.607Z,80.08
2023-03-25T12:46:31.616Z,79.53
2023-03-25T12:47:31.523Z,78.82
2023-03-25T12:48:31.521Z,78.65
2023-03-25T12:49:31.628Z,78.75
2023-03-25T12:50:32.598Z,80.25
2023-03-25T12:51:31.478Z,78.61
2023-03-25T12:52:31.465Z,78.82